Tiempo atmosférico en la estación meteorológica de Cabo de Gata, Almería (42 m.)



Fecha
DESCASC
Temp. máxima en grados centígrados (hora)
DESCASC
Temp. mínima en grados centígrados (hora)
DESCASC
Temp. media en grados centígrados
DESCASC
Racha de viento máxima en m/sg (hora)
DESCASC
Velocidad máxima media en intervalos de 10 minutos(hora)
DESCASC
Precipitaciones diarias en mm
DESCASC
Precipitaciones de 00:00 a 06:00 en mm
DESCASC
Precipitaciones de 06:00 a 12:00 en mm
DESCASC
Precipitaciones de 12:00 a 18:00 en mm
DESCASC
Precipitaciones de 18:00 a 24:00 en mm
DESCASC
18-08-2019 29.5 (15:20) 24.2 (03:00) 26.9 8.61 (16:40) 5.56 (16:40) 0 0 0 0 0
17-08-2019 27.3 (13:10) 23.6 (06:10) 25.4 15 (16:40) 11.67 (15:50) 0 0 0 0 0
16-08-2019 29.6 (11:50) 24.8 (06:50) 27.2 14.44 (15:30) 11.39 (15:40) 0 0 0 0 0
15-08-2019 29.7 (13:10) 23.3 (00:00) 26.5 13.06 (16:40) 8.61 (17:50) 0 0 0 0 0
14-08-2019 27.1 (11:00) 24.6 (00:00) 25.9 13.61 (12:40) 10.28 (12:40) 0 0 0 0 0
13-08-2019 29.5 (12:20) 25.5 (00:00) 27.5 21.11 (14:20) 12.78 (13:50) 0 0 0 0 0
12-08-2019 28 (19:20) 22.3 (00:00) 25.1 13.89 (03:50) 9.44 (03:50) 0 0 0 0 0
11-08-2019 27.6 (16:00) 22.9 (00:00) 25.3 14.17 (04:30) 8.61 (04:30) 0 0 0 0 0
10-08-2019 28.4 (16:20) 22.2 (00:00) 25.3 11.39 (05:20) 8.61 (05:20) 0 0 0 0 0
09-08-2019 28.2 (14:40) 23.2 (00:00) 25.7 14.44 (07:10) 9.72 (04:50) 0 0 0 0 0
08-08-2019 28.8 (15:30) 23 (00:00) 25.9 8.33 (12:40) 6.11 (01:00) 0 0 0 0 0
07-08-2019 29.7 (15:20) 24 (00:00) 26.9 16.94 (06:50) 11.67 (06:40) 0 0 0 0 0
06-08-2019 30.6 (16:30) 24.3 (00:00) 27.4 13.89 (03:00) 9.72 (03:00) 0 0 0 0 0
05-08-2019 29.6 (16:20) 23.6 (00:00) 26.6 8.89 (06:00) 6.11 (06:00) 0 0 0 0 0
04-08-2019 28.9 (15:40) 24.2 (00:00) 26.6 10.56 (03:20) 6.67 (03:10) 0 0 0 0 0
03-08-2019 27.8 (12:00) 24 (00:00) 25.9 13.33 (12:40) 9.17 (12:20) 0 0 0 0 0
02-08-2019 29.5 (15:40) 23.3 (00:00) 26.4 11.39 (00:10) 6.39 (04:10) 0 0 0 0 0
01-08-2019 28.6 (16:00) 24.6 (00:00) 26.6 20 (11:10) 12.22 (11:00) 0 0 0 0 0
31-07-2019 29.3 (15:00) 24.6 (00:00) 26.9 24.72 (17:00) 14.72 (05:30) 0 0 0 0 0
30-07-2019 26.8 (19:50) 21.8 (00:00) 24.3 13.61 (16:40) 11.39 (17:20) 0 0 0 0 0
29-07-2019 26.7 (15:40) 21 (00:00) 23.9 6.67 (23:59) 4.17 (22:50) 0 0 0 0 0
28-07-2019 27.1 (13:50) 21.2 (00:00) 24.2 12.22 (00:10) 7.5 (00:10) 0 0 0 0 0
27-07-2019 26.4 (10:40) 23 (00:00) 24.7 16.11 (15:00) 10.28 (14:50) 0 0 0 0 0
26-07-2019 27.8 (14:30) 23.9 (00:00) 25.8 14.44 (20:30) 10 (22:20) 0 0 0 0 0
25-07-2019 29.4 (11:50) 25 (00:00) 27.2 7.78 (06:10) 4.72 (06:30) 0 0 0 0 0
24-07-2019 31.5 (18:50) 24.9 (00:00) 28.2 16.67 (18:00) 10.83 (20:20) 0 0 0 0 0
23-07-2019 32.7 (13:10) 25.3 (00:00) 29 22.78 (14:50) 14.72 (14:50) 0 0 0 0 0
22-07-2019 29.9 (13:10) 24.1 (00:00) 27 26.94 (16:40) 17.5 (17:20) 0 0 0 0 0
21-07-2019 30.1 (13:50) 24.6 (00:00) 27.4 19.72 (20:10) 10.83 (16:10) 0 0 0 0 0

Gráficas

Temp. máximas Temp. mínimas Temp. medias Precipitaciones Rachas de viento máximas Velocidades máximas media en intervalos de 10 minutos

Datos horarios

Fecha y hora oficial Temperatura (ºC) Velocidad del viento (km/h) Dirección del viento Racha (km/h) Dirección de racha Precipitación (mm) Presión (hPa) Tendencia (hPa) Humedad (%)
2019-08-19 23:00:00 26.6 22 Este 33 Este 0 -- -- 79
2019-08-19 22:00:00 26.1 4 Oeste 9 Oeste 0 -- -- 67
2019-08-19 21:00:00 27.1 3 Sudoeste 24 Sudeste 0 -- -- 74
2019-08-19 20:00:00 26.4 4 Sudeste 13 Oeste 0 -- -- 75
2019-08-19 19:00:00 27.3 10 Oeste 21 Oeste 0 -- -- 75
2019-08-19 18:00:00 27.7 15 Oeste 22 Oeste 0 -- -- 74
2019-08-19 17:00:00 28.5 13 Oeste 19 Oeste 0 -- -- 70
2019-08-19 16:00:00 28.5 5 Oeste 16 Sudoeste 0 -- -- 71
2019-08-19 15:00:00 29.4 5 Oeste 14 Sudoeste 0 -- -- 71
2019-08-19 14:00:00 29.4 7 Oeste 16 Oeste 0 -- -- 70
2019-08-19 13:00:00 28.5 8 Oeste 13 Oeste 0 -- -- 72
2019-08-19 12:00:00 28 5 Oeste 12 Oeste 0 -- -- 75
2019-08-19 11:00:00 27.2 4 Oeste 9 Sudoeste 0 -- -- 78
2019-08-19 10:00:00 26.8 7 Oeste 18 Noroeste 0 -- -- 82
2019-08-19 09:00:00 25.2 11 Oeste 17 Noroeste 0 -- -- 85
2019-08-19 08:00:00 23.2 3 Noroeste 12 Noroeste 0 -- -- 85
2019-08-19 07:00:00 23.4 6 Norte 11 Noroeste 0 -- -- 85
2019-08-19 06:00:00 24.1 6 Noroeste 19 Noroeste 0 -- -- 85
2019-08-19 05:00:00 24.1 8 Oeste 18 Oeste 0 -- -- 85
2019-08-19 04:00:00 24.3 4 Sur 18 Oeste 0 -- -- 85
2019-08-19 03:00:00 24.3 10 Oeste 21 Sudoeste 0 -- -- 84
2019-08-19 02:00:00 24.4 7 Sudoeste 22 Sudoeste 0 -- -- 84
2019-08-19 01:00:00 24.6 7 Sudeste 18 Oeste 0 -- -- 83
2019-08-19 00:00:00 25 5 Oeste 14 Oeste 0 -- -- 80
2019-08-18 23:00:00 24.9 10 Oeste 16 Oeste 0 -- -- 79
2019-08-18 22:00:00 25.4 9 Oeste 19 Oeste 0 -- -- 80
2019-08-18 21:00:00 26 11 Oeste 21 Oeste 0 -- -- 79
2019-08-18 20:00:00 26.5 14 Oeste 23 Noroeste 0 -- -- 77
2019-08-18 19:00:00 27 11 Oeste 22 Oeste 0 -- -- 75
2019-08-18 18:00:00 28 13 Oeste 21 Oeste 0 -- -- 73
2019-08-18 17:00:00 29.1 12 Oeste 31 Oeste 0 -- -- 68
2019-08-18 16:00:00 29.4 10 Oeste 19 Oeste 0 -- -- 68
2019-08-18 15:00:00 29.3 10 Oeste 26 Oeste 0 -- -- 68
2019-08-18 14:00:00 28.3 14 Oeste 26 Sudoeste 0 -- -- 72
2019-08-18 13:00:00 28.2 15 Oeste 28 Oeste 0 -- -- 72
2019-08-18 12:00:00 28.5 10 Oeste 21 Oeste 0 -- -- 77
2019-08-18 11:00:00 28.2 9 Oeste 20 Noroeste 0 -- -- 80
2019-08-18 10:00:00 26.5 9 Oeste 15 Noroeste 0 -- -- 84
2019-08-18 09:00:00 26.9 10 Sudeste 17 Sudeste 0 -- -- 80
2019-08-18 08:00:00 25.5 3 Sur 9 Sur 0 -- -- 69
2019-08-18 07:00:00 25.5 3 Sudeste 9 Este 0 -- -- 60
2019-08-18 06:00:00 24.8 2 Sudoeste 9 Noroeste 0 -- -- 65
2019-08-18 05:00:00 25.3 5 Este 9 Norte 0 -- -- 67
2019-08-18 04:00:00 25 3 Norte 6 Norte 0 -- -- 71
2019-08-18 03:00:00 24.2 0 Calma 9 Nordeste 0 -- -- 71
2019-08-18 02:00:00 24.6 7 Norte 21 Noroeste 0 -- -- 83
2019-08-18 01:00:00 25.3 9 Noroeste 23 Noroeste 0 -- -- 87
2019-08-18 00:00:00 26.1 7 Oeste 13 Oeste 0 -- -- 87
2019-08-17 23:00:00 26.3 8 Oeste 15 Oeste 0 -- -- 87
2019-08-17 22:00:00 26.5 6 Oeste 13 Oeste 0 -- -- 86
2019-08-17 21:00:00 26.9 10 Oeste 23 Noroeste 0 -- -- 85
2019-08-17 20:00:00 26.7 14 Este 30 Este 0 -- -- 86
2019-08-17 19:00:00 26.6 25 Este 43 Este 0 -- -- 86
2019-08-17 18:00:00 26.6 36 Este 45 Este 0 -- -- 84
2019-08-17 17:00:00 26.8 38 Este 54 Sudeste 0 -- -- 82
2019-08-17 16:00:00 27.1 38 Este 50 Este 0 -- -- 81
2019-08-17 15:00:00 27 42 Este 51 Este 0 -- -- 81
2019-08-17 14:00:00 27.3 35 Este 43 Este 0 -- -- 81
2019-08-17 13:00:00 27.2 33 Este 52 Este 0 -- -- 80
2019-08-17 12:00:00 27 31 Este 39 Este 0 -- -- 81
2019-08-17 11:00:00 27 26 Este 30 Este 0 -- -- 80
2019-08-17 10:00:00 26.9 17 Este 26 Este 0 -- -- 82
2019-08-17 09:00:00 25.9 17 Este 22 Este 0 -- -- 82
2019-08-17 08:00:00 24.3 4 Este 10 Este 0 -- -- 84
2019-08-17 07:00:00 24.4 6 Este 9 Este 0 -- -- 85
2019-08-17 06:00:00 23.8 6 Norte 10 Noroeste 0 -- -- 86
2019-08-17 05:00:00 24.3 6 Norte 10 Norte 0 -- -- 86
2019-08-17 04:00:00 24.5 6 Norte 10 Noroeste 0 -- -- 86
2019-08-17 03:00:00 24.7 5 Noroeste 11 Noroeste 0 -- -- 85
2019-08-17 02:00:00 25.4 6 Noroeste 11 Noroeste 0 -- -- 85
2019-08-17 01:00:00 26 6 Oeste 14 Noroeste 0 -- -- 83
2019-08-17 00:00:00 26.5 10 Noroeste 14 Noroeste 0 -- -- 80
2019-08-16 23:00:00 26.3 8 Este 12 Este 0 -- -- 79
2019-08-16 22:00:00 26.5 9 Este 19 Este 0 -- -- 80
2019-08-16 21:00:00 26.8 11 Este 32 Este 0 -- -- 80
2019-08-16 20:00:00 26.6 22 Este 37 Este 0 -- -- 81
2019-08-16 19:00:00 27.1 26 Este 42 Este 0 -- -- 78
2019-08-16 18:00:00 26.7 33 Este 48 Nordeste 0 -- -- 80
2019-08-16 17:00:00 26.9 37 Este 49 Sudeste 0 -- -- 78
2019-08-16 16:00:00 27.3 37 Este 52 Este 0 -- -- 75
2019-08-16 15:00:00 28.6 29 Este 51 Este 0 -- -- 70
2019-08-16 14:00:00 27.8 36 Este 51 Sudeste 0 -- -- 71
2019-08-16 13:00:00 28.9 31 Este 47 Este 0 -- -- 64
2019-08-16 12:00:00 29.6 24 Este 40 Este 0 -- -- 60
2019-08-16 11:00:00 28.5 25 Este 40 Este 0 -- -- 65
2019-08-16 10:00:00 28.7 4 Oeste 10 Oeste 0 -- -- 55
2019-08-16 09:00:00 26.6 5 Oeste 11 Sudoeste 0 -- -- 61
2019-08-16 08:00:00 25.3 2 Sudoeste 9 Oeste 0 -- -- 60
2019-08-16 07:00:00 25 4 Noroeste 6 Oeste 0 -- -- 59
2019-08-16 06:00:00 25.4 0 Calma 5 Oeste 0 -- -- 64
2019-08-16 05:00:00 25.8 2 Oeste 7 Noroeste 0 -- -- 55
2019-08-16 04:00:00 25.7 0 Calma 4 Este 0 -- -- 61
2019-08-16 03:00:00 25.8 0 Calma 9 Norte 0 -- -- 55
2019-08-16 02:00:00 25.9 5 Noroeste 10 Noroeste 0 -- -- 56
2019-08-16 01:00:00 27.1 7 Noroeste 12 Noroeste 0 -- -- 63
2019-08-16 00:00:00 27.1 13 Este 19 Este 0 -- -- 52
2019-08-15 23:00:00 27.3 9 Este 18 Este 0 -- -- 57
2019-08-15 22:00:00 27.5 14 Este 22 Este 0 -- -- 59
2019-08-15 21:00:00 28.3 8 Este 27 Este 0 -- -- 50
2019-08-15 20:00:00 29 23 Este 34 Sudeste 0 -- -- 45
2019-08-15 19:00:00 29 27 Este 37 Este 0 -- -- 47
2019-08-15 18:00:00 28 30 Este 40 Este 0 -- -- 59
2019-08-15 17:00:00 28.6 30 Este 47 Este 0 -- -- 56
2019-08-15 16:00:00 28.8 28 Este 36 Este 0 -- -- 64
2019-08-15 15:00:00 29.3 26 Este 36 Sudeste 0 -- -- 60
2019-08-15 14:00:00 29.2 27 Este 40 Sudeste 0 -- -- 59
2019-08-15 13:00:00 29.6 22 Este 41 Este 0 -- -- 56
2019-08-15 12:00:00 29.2 23 Este 32 Este 0 -- -- 55
2019-08-15 11:00:00 27.8 18 Este 28 Este 0 -- -- 69
2019-08-15 10:00:00 26.4 0 Calma 6 Oeste 0 -- -- 80
2019-08-15 09:00:00 25.1 4 Oeste 5 Noroeste 0 -- -- 83
2019-08-15 08:00:00 23.6 0 Calma 9 Norte 0 -- -- 85
2019-08-15 07:00:00 23.7 6 Norte 8 Norte 0 -- -- 85
2019-08-15 06:00:00 23.8 3 Norte 12 Noroeste 0 -- -- 85
2019-08-15 05:00:00 23.9 3 Noroeste 9 Norte 0 -- -- 85
2019-08-15 04:00:00 24 6 Norte 9 Norte 0 -- -- 84
2019-08-15 03:00:00 24.3 3 Noroeste 6 Norte 0 -- -- 84
2019-08-15 02:00:00 24.4 4 Norte 8 Norte 0 -- -- 84
2019-08-15 01:00:00 24.9 4 Norte 11 Noroeste 0 -- -- 84
2019-08-15 00:00:00 25.6 8 Noroeste 12 Oeste 0 -- -- 84
2019-08-14 23:00:00 25.8 4 Oeste 8 Oeste 0 -- -- 82
2019-08-14 22:00:00 25.9 6 Sudeste 17 Este 0 -- -- 80
2019-08-14 21:00:00 26 12 Este 32 Este 0 -- -- 80
2019-08-14 20:00:00 25.9 26 Este 40 Este 0 -- -- 80
2019-08-14 19:00:00 25.9 31 Este 41 Este 0 -- -- 79
2019-08-14 18:00:00 26 33 Este 40 Este 0 -- -- 78
2019-08-14 17:00:00 26.3 34 Este 41 Este 0 -- -- 76
2019-08-14 16:00:00 26.6 33 Este 40 Este 0 -- -- 75
2019-08-14 15:00:00 26.7 34 Este 43 Este 0 -- -- 76
2019-08-14 14:00:00 26.7 33 Este 44 Este 0 -- -- 76
2019-08-14 13:00:00 26.7 35 Este 49 Este 0 -- -- 74
2019-08-14 12:00:00 27 33 Este 43 Este 0 -- -- 72
2019-08-14 11:00:00 27.1 27 Este 36 Este 0 -- -- 70
2019-08-14 10:00:00 27 17 Este 27 Este 0 -- -- 72
2019-08-14 09:00:00 25.7 14 Nordeste 21 Nordeste 0 -- -- 78
2019-08-14 08:00:00 24.7 8 Nordeste 20 Nordeste 0 -- -- 79
2019-08-14 07:00:00 24.6 5 Nordeste 12 Nordeste 0 -- -- 79
2019-08-14 06:00:00 24.7 2 Norte 20 Nordeste 0 -- -- 77
2019-08-14 05:00:00 24.8 13 Nordeste 29 Nordeste 0 -- -- 77
2019-08-14 04:00:00 24.8 14 Norte 32 Nordeste 0 -- -- 78
2019-08-14 03:00:00 25 18 Nordeste 33 Nordeste 0 -- -- 78
2019-08-14 02:00:00 25.1 10 Nordeste 27 Este 0 -- -- 79
2019-08-14 01:00:00 25.3 14 Nordeste 34 Este 0 -- -- 79
2019-08-14 00:00:00 25.5 21 Este 35 Nordeste 0 -- -- 79
2019-08-13 23:00:00 25.7 22 Este 39 Este 0 -- -- 80
2019-08-13 22:00:00 25.7 23 Nordeste 37 Nordeste 0 -- -- 80
2019-08-13 21:00:00 26 21 Este 44 Este 0 -- -- 79
2019-08-13 20:00:00 26.3 26 Este 46 Este 0 -- -- 77
2019-08-13 19:00:00 26.8 28 Este 54 Este 0 -- -- 76
2019-08-13 18:00:00 27.1 32 Este 62 Este 0 -- -- 75
2019-08-13 17:00:00 27.5 37 Este 74 Este 0 -- -- 74
2019-08-13 16:00:00 27.8 36 Este 66 Este 0 -- -- 74
2019-08-13 15:00:00 28.1 37 Este 76 Este 0 -- -- 72
2019-08-13 14:00:00 28.5 40 Este 68 Nordeste 0 -- -- 68
2019-08-13 13:00:00 29.2 31 Nordeste 54 Este 0 -- -- 65
2019-08-13 12:00:00 29.2 32 Nordeste 54 Nordeste 0 -- -- 61
2019-08-13 11:00:00 28.9 27 Nordeste 46 Este 0 -- -- 60
2019-08-13 10:00:00 28 26 Nordeste 46 Nordeste 0 -- -- 66
2019-08-13 09:00:00 26.8 16 Nordeste 27 Nordeste 0 -- -- 75
2019-08-13 08:00:00 26.2 5 Norte 17 Nordeste 0 -- -- 77
2019-08-13 07:00:00 26.3 9 Norte 26 Nordeste 0 -- -- 77
2019-08-13 06:00:00 26.2 16 Nordeste 38 Este 0 -- -- 78
2019-08-13 05:00:00 26.3 14 Nordeste 37 Nordeste 0 -- -- 78
2019-08-13 04:00:00 26.4 13 Norte 37 Norte 0 -- -- 77
2019-08-13 03:00:00 26.4 16 Nordeste 24 Este 0 -- -- 79
2019-08-13 02:00:00 26.2 6 Nordeste 23 Nordeste 0 -- -- 79
2019-08-13 01:00:00 26.3 11 Nordeste 21 Este 0 -- -- 80
2019-08-13 00:00:00 26.5 17 Nordeste 37 Este 0 -- -- 79
2019-08-12 23:00:00 27.1 20 Este 35 Este 0 -- -- 75
2019-08-12 22:00:00 27 21 Nordeste 37 Este 0 -- -- 71
2019-08-12 21:00:00 27.1 25 Este 39 Este 0 -- -- 69
2019-08-12 20:00:00 27.7 21 Este 41 Este 0 -- -- 59
2019-08-12 19:00:00 27.5 17 Este 32 Este 0 -- -- 53
2019-08-12 18:00:00 26.7 22 Este 33 Este 0 -- -- 61
2019-08-12 17:00:00 25.7 25 Este 31 Este 0 -- -- 68
2019-08-12 16:00:00 26.5 14 Sudeste 22 Este 0 -- -- 69
2019-08-12 15:00:00 27.5 11 Sudeste 19 Este 0 -- -- 66
2019-08-12 14:00:00 27.1 5 Sudeste 13 Sudeste 0 -- -- 67
2019-08-12 13:00:00 26.5 6 Sudeste 19 Este 0 -- -- 71
2019-08-12 12:00:00 25.5 8 Sudeste 17 Este 0 -- -- 75
2019-08-12 11:00:00 25.5 5 Sudeste 12 Sudeste 0 -- -- 75
2019-08-12 10:00:00 24.9 3 Sudeste 10 Oeste 0 -- -- 80
2019-08-12 09:00:00 23.5 7 Oeste 15 Noroeste 0 -- -- 83
2019-08-12 08:00:00 22.3 8 Noroeste 15 Oeste 0 -- -- 82
2019-08-12 07:00:00 22.6 3 Oeste 8 Oeste 0 -- -- 81
2019-08-12 06:00:00 23.4 0 Calma 6 Sudoeste 0 -- -- 78
2019-08-12 05:00:00 24 3 Sur 27 Oeste 0 -- -- 72
2019-08-12 04:00:00 26.1 21 Noroeste 50 Noroeste 0 -- -- 61
2019-08-12 03:00:00 22.8 22 Oeste 36 Noroeste 0 -- -- 81
2019-08-12 02:00:00 23 16 Oeste 29 Noroeste 0 -- -- 80
2019-08-12 01:00:00 23.2 13 Oeste 24 Noroeste 0 -- -- 79
2019-08-12 00:00:00 23.3 9 Oeste 16 Oeste 0 -- -- 78
2019-08-11 23:00:00 23.4 8 Oeste 13 Oeste 0 -- -- 78
2019-08-11 22:00:00 23.7 5 Sudeste 14 Sudoeste 0 -- -- 76
2019-08-11 21:00:00 24.3 4 Oeste 23 Oeste 0 -- -- 72
2019-08-11 20:00:00 24.7 12 Oeste 26 Oeste 0 -- -- 71
2019-08-11 19:00:00 25.4 14 Oeste 30 Oeste 0 -- -- 69
2019-08-11 18:00:00 25.7 21 Oeste 39 Noroeste 0 -- -- 66
2019-08-11 17:00:00 26.2 19 Oeste 31 Noroeste 0 -- -- 67
2019-08-11 16:00:00 27.6 15 Oeste 24 Noroeste 0 -- -- 65
2019-08-11 15:00:00 27.1 6 Oeste 15 Sudoeste 0 -- -- 67
2019-08-11 14:00:00 26.4 5 Sudoeste 12 Oeste 0 -- -- 70
2019-08-11 13:00:00 27 6 Oeste 19 Oeste 0 -- -- 73
2019-08-11 12:00:00 25.6 5 Sur 12 Oeste 0 -- -- 75
2019-08-11 11:00:00 25.7 5 Oeste 12 Oeste 0 -- -- 78
2019-08-11 10:00:00 24.5 3 Oeste 7 Noroeste 0 -- -- 84
2019-08-11 09:00:00 23.6 2 Sur 14 Oeste 0 -- -- 86
2019-08-11 08:00:00 22.9 8 Oeste 15 Oeste 0 -- -- 86
2019-08-11 07:00:00 23.3 3 Sudoeste 12 Sudoeste 0 -- -- 85
2019-08-11 06:00:00 23.8 3 Sudeste 16 Oeste 0 -- -- 82
2019-08-11 05:00:00 25.3 7 Sur 51 Noroeste 0 -- -- 77
2019-08-11 04:00:00 23.4 25 Oeste 41 Noroeste 0 -- -- 86
2019-08-11 03:00:00 23.5 20 Noroeste 30 Noroeste 0 -- -- 84
2019-08-11 02:00:00 23.5 4 Sudeste 26 Noroeste 0 -- -- 84
2019-08-11 01:00:00 23.6 12 Oeste 28 Noroeste 0 -- -- 84
2019-08-11 00:00:00 23.9 15 Noroeste 22 Noroeste 0 -- -- 83
2019-08-10 23:00:00 24.1 8 Oeste 13 Noroeste 0 -- -- 82
2019-08-10 22:00:00 24.1 3 Sudeste 9 Sudeste 0 -- -- 82
2019-08-10 21:00:00 24.5 2 Sudeste 8 Sudeste 0 -- -- 80
2019-08-10 20:00:00 25.1 3 Sur 9 Sur 0 -- -- 79
2019-08-10 19:00:00 25.5 4 Sudeste 8 Sudeste 0 -- -- 78
2019-08-10 18:00:00 25.8 4 Sudeste 8 Sudeste 0 -- -- 75
2019-08-10 17:00:00 27.5 4 Sudoeste 9 Sudoeste 0 -- -- 72
2019-08-10 16:00:00 28.3 5 Oeste 21 Noroeste 0 -- -- 70
2019-08-10 15:00:00 27.8 12 Oeste 30 Oeste 0 -- -- 72
2019-08-10 14:00:00 27.5 17 Oeste 28 Oeste 0 -- -- 73
2019-08-10 13:00:00 26.6 12 Sudoeste 28 Noroeste 0 -- -- 77
2019-08-10 12:00:00 25.6 20 Noroeste 31 Oeste 0 -- -- 80
2019-08-10 11:00:00 24.8 19 Oeste 29 Noroeste 0 -- -- 83
2019-08-10 10:00:00 24.3 17 Oeste 21 Noroeste 0 -- -- 87
2019-08-10 09:00:00 23 6 Sudeste 16 Sudeste 0 -- -- 88
2019-08-10 08:00:00 23 3 Norte 31 Noroeste 0 -- -- 88
2019-08-10 07:00:00 22.7 16 Oeste 30 Noroeste 0 -- -- 89
2019-08-10 06:00:00 22.8 17 Oeste 41 Oeste 0 -- -- 88
2019-08-10 05:00:00 23 28 Oeste 39 Oeste 0 -- -- 87
2019-08-10 04:00:00 23.1 27 Oeste 40 Noroeste 0 -- -- 86
2019-08-10 03:00:00 23.4 20 Oeste 30 Noroeste 0 -- -- 85
2019-08-10 02:00:00 23.3 18 Oeste 32 Noroeste 0 -- -- 84
2019-08-10 01:00:00 23.6 19 Oeste 26 Oeste 0 -- -- 83
2019-08-10 00:00:00 23.8 19 Oeste 33 Noroeste 0 -- -- 82
2019-08-09 23:00:00 24.1 18 Oeste 30 Noroeste 0 -- -- 81
2019-08-09 22:00:00 24.5 16 Oeste 34 Noroeste 0 -- -- 79
2019-08-09 21:00:00 25.2 18 Oeste 40 Noroeste 0 -- -- 75
2019-08-09 20:00:00 25.9 18 Oeste 30 Noroeste 0 -- -- 73
2019-08-09 19:00:00 26.2 15 Oeste 25 Oeste 0 -- -- 73
2019-08-09 18:00:00 27.2 11 Oeste 28 Oeste 0 -- -- 70
2019-08-09 17:00:00 27.6 19 Oeste 32 Oeste 0 -- -- 65
2019-08-09 16:00:00 27.8 18 Oeste 31 Noroeste 0 -- -- 66
2019-08-09 15:00:00 28.2 16 Oeste 26 Oeste 0 -- -- 68
2019-08-09 14:00:00 27.5 12 Oeste 24 Oeste 0 -- -- 69
2019-08-09 13:00:00 27.7 14 Oeste 31 Oeste 0 -- -- 72
2019-08-09 12:00:00 27 20 Oeste 29 Oeste 0 -- -- 75
2019-08-09 11:00:00 26.2 21 Oeste 33 Oeste 0 -- -- 78
2019-08-09 10:00:00 25.8 21 Oeste 31 Noroeste 0 -- -- 80
2019-08-09 09:00:00 25.4 20 Oeste 40 Noroeste 0 -- -- 76
2019-08-09 08:00:00 24.8 25 Oeste 52 Noroeste 0 -- -- 71
2019-08-09 07:00:00 24 29 Noroeste 51 Noroeste 0 -- -- 78
2019-08-09 06:00:00 23.8 30 Noroeste 49 Noroeste 0 -- -- 83
2019-08-09 05:00:00 23.6 31 Noroeste 48 Noroeste 0 -- -- 86
2019-08-09 04:00:00 23.4 22 Oeste 34 Noroeste 0 -- -- 88
2019-08-09 03:00:00 23.8 18 Oeste 31 Noroeste 0 -- -- 87
2019-08-09 02:00:00 23.8 19 Noroeste 28 Noroeste 0 -- -- 87
2019-08-09 01:00:00 24.3 19 Oeste 31 Noroeste 0 -- -- 86
2019-08-09 00:00:00 24.7 13 Oeste 26 Noroeste 0 -- -- 83
2019-08-08 23:00:00 25.6 9 Oeste 14 Oeste 0 -- -- 80
2019-08-08 22:00:00 26 5 Oeste 14 Oeste 0 -- -- 75
2019-08-08 21:00:00 27.2 5 Oeste 8 Oeste 0 -- -- 72
2019-08-08 20:00:00 28.1 4 Sudoeste 7 Sudoeste 0 -- -- 67
2019-08-08 19:00:00 26.8 4 Sudeste 6 Oeste 0 -- -- 63
2019-08-08 18:00:00 27.8 3 Oeste 9 Oeste 0 -- -- 71
2019-08-08 17:00:00 28.6 7 Oeste 11 Oeste 0 -- -- 69
2019-08-08 16:00:00 28.3 5 Sur 11 Este 0 -- -- 71
2019-08-08 15:00:00 28.3 7 Sudeste 19 Este 0 -- -- 72
2019-08-08 14:00:00 27.5 14 Este 26 Sudeste 0 -- -- 75
2019-08-08 13:00:00 27.4 17 Este 30 Este 0 -- -- 76
2019-08-08 12:00:00 27.1 18 Este 22 Sudeste 0 -- -- 75
2019-08-08 11:00:00 26.8 13 Este 17 Este 0 -- -- 77
2019-08-08 10:00:00 26.3 4 Sudeste 7 Sudeste 0 -- -- 81
2019-08-08 09:00:00 24.7 0 Calma 10 Este 0 -- -- 82
2019-08-08 08:00:00 23.5 7 Este 12 Este 0 -- -- 80
2019-08-08 07:00:00 23.4 6 Noroeste 14 Oeste 0 -- -- 82
2019-08-08 06:00:00 23.1 8 Noroeste 15 Oeste 0 -- -- 84
2019-08-08 05:00:00 23.2 9 Noroeste 12 Oeste 0 -- -- 84
2019-08-08 04:00:00 23.8 0 Calma 7 Noroeste 0 -- -- 83
2019-08-08 03:00:00 23.9 2 Sudoeste 14 Oeste 0 -- -- 83
2019-08-08 02:00:00 24.2 9 Oeste 28 Noroeste 0 -- -- 82
2019-08-08 01:00:00 24.4 22 Oeste 28 Oeste 0 -- -- 80
2019-08-08 00:00:00 24.7 13 Oeste 22 Oeste 0 -- -- 78
2019-08-07 23:00:00 25.2 12 Oeste 20 Oeste 0 -- -- 75
2019-08-07 22:00:00 25.7 3 Sur 9 Sur 0 -- -- 72
2019-08-07 21:00:00 27 5 Sudoeste 32 Noroeste 0 -- -- 63
2019-08-07 20:00:00 27.7 18 Oeste 39 Noroeste 0 -- -- 55
2019-08-07 19:00:00 27.9 25 Noroeste 47 Noroeste 0 -- -- 54
2019-08-07 18:00:00 28.5 15 Oeste 37 Noroeste 0 -- -- 51
2019-08-07 17:00:00 28.2 24 Oeste 38 Oeste 0 -- -- 55
2019-08-07 16:00:00 29.2 17 Oeste 29 Noroeste 0 -- -- 60
2019-08-07 15:00:00 29.4 10 Oeste 19 Noroeste 0 -- -- 62
2019-08-07 14:00:00 29.2 12 Oeste 24 Noroeste 0 -- -- 64
2019-08-07 13:00:00 28.8 10 Oeste 15 Oeste 0 -- -- 67
2019-08-07 12:00:00 28.4 5 Oeste 22 Noroeste 0 -- -- 71
2019-08-07 11:00:00 26.9 15 Oeste 26 Noroeste 0 -- -- 76
2019-08-07 10:00:00 25.8 12 Oeste 26 Oeste 0 -- -- 78
2019-08-07 09:00:00 24.9 19 Oeste 28 Noroeste 0 -- -- 78
2019-08-07 08:00:00 25 19 Oeste 50 Noroeste 0 -- -- 71
2019-08-07 07:00:00 24 37 Noroeste 61 Noroeste 0 -- -- 75
2019-08-07 06:00:00 24.6 37 Noroeste 50 Noroeste 0 -- -- 75
2019-08-07 05:00:00 25 33 Noroeste 53 Noroeste 0 -- -- 71
2019-08-07 04:00:00 25 24 Noroeste 36 Noroeste 0 -- -- 70
2019-08-07 03:00:00 24.9 8 Oeste 17 Sudoeste 0 -- -- 74
2019-08-07 02:00:00 25.5 9 Oeste 30 Noroeste 0 -- -- 71
2019-08-07 01:00:00 25.8 24 Noroeste 33 Noroeste 0 -- -- 64
2019-08-07 00:00:00 25.5 24 Noroeste 44 Noroeste 0 -- -- 66
2019-08-06 23:00:00 25.4 13 Oeste 22 Noroeste 0 -- -- 78
2019-08-06 22:00:00 25.7 18 Noroeste 27 Noroeste 0 -- -- 77
2019-08-06 21:00:00 27.3 9 Oeste 15 Sudoeste 0 -- -- 75
2019-08-06 20:00:00 27.6 5 Oeste 12 Oeste 0 -- -- 73
2019-08-06 19:00:00 28.1 4 Oeste 18 Oeste 0 -- -- 69
2019-08-06 18:00:00 28.6 14 Oeste 20 Oeste 0 -- -- 66
2019-08-06 17:00:00 29.7 7 Oeste 14 Sudoeste 0 -- -- 64
2019-08-06 16:00:00 30.4 6 Oeste 12 Oeste 0 -- -- 67
2019-08-06 15:00:00 30.1 4 Oeste 8 Oeste 0 -- -- 67
2019-08-06 14:00:00 29.3 3 Oeste 9 Noroeste 0 -- -- 67
2019-08-06 13:00:00 29 4 Oeste 9 Oeste 0 -- -- 69
2019-08-06 12:00:00 27.8 3 Sudoeste 13 Noroeste 0 -- -- 70
2019-08-06 11:00:00 27.2 7 Oeste 14 Oeste 0 -- -- 75
2019-08-06 10:00:00 26 5 Oeste 16 Noroeste 0 -- -- 83
2019-08-06 09:00:00 25.2 12 Oeste 21 Noroeste 0 -- -- 85
2019-08-06 08:00:00 24.6 10 Oeste 15 Oeste 0 -- -- 85
2019-08-06 07:00:00 24.5 3 Sur 8 Sur 0 -- -- 84
2019-08-06 06:00:00 24.4 7 Sudeste 11 Sudeste 0 -- -- 82
2019-08-06 05:00:00 25 4 Sur 22 Noroeste 0 -- -- 77
2019-08-06 04:00:00 24.9 14 Noroeste 46 Noroeste 0 -- -- 74
2019-08-06 03:00:00 25.1 35 Noroeste 50 Noroeste 0 -- -- 71
2019-08-06 02:00:00 24.8 19 Noroeste 37 Noroeste 0 -- -- 73
2019-08-06 01:00:00 25.7 13 Oeste 21 Noroeste 0 -- -- 73
2019-08-06 00:00:00 25.5 13 Oeste 29 Noroeste 0 -- -- 68
2019-08-05 23:00:00 26.1 5 Oeste 9 Oeste 0 -- -- 72
2019-08-05 22:00:00 26.4 3 Oeste 6 Oeste 0 -- -- 72
2019-08-05 21:00:00 26.3 0 Calma 7 Este 0 -- -- 72
2019-08-05 20:00:00 26.8 4 Sudeste 8 Sudeste 0 -- -- 71
2019-08-05 19:00:00 27.2 3 Sur 8 Sudoeste 0 -- -- 66
2019-08-05 18:00:00 27.5 4 Sudoeste 9 Sudeste 0 -- -- 64
2019-08-05 17:00:00 28.5 5 Sudeste 13 Este 0 -- -- 56
2019-08-05 16:00:00 29.4 6 Sudeste 23 Sudeste 0 -- -- 58
2019-08-05 15:00:00 28.2 14 Este 26 Este 0 -- -- 61
2019-08-05 14:00:00 28 19 Este 30 Este 0 -- -- 65
2019-08-05 13:00:00 28 22 Este 31 Este 0 -- -- 66
2019-08-05 12:00:00 28.6 9 Sudeste 16 Este 0 -- -- 64
2019-08-05 11:00:00 28.3 3 Sudeste 8 Oeste 0 -- -- 68
2019-08-05 10:00:00 27.1 3 Oeste 22 Noroeste 0 -- -- 75
2019-08-05 09:00:00 25.6 10 Oeste 20 Noroeste 0 -- -- 75
2019-08-05 08:00:00 23.7 9 Noroeste 15 Noroeste 0 -- -- 79
2019-08-05 07:00:00 24.6 2 Nordeste 26 Este 0 -- -- 79
2019-08-05 06:00:00 25 22 Este 32 Este 0 -- -- 71
2019-08-05 05:00:00 25.2 6 Nordeste 13 Noroeste 0 -- -- 57
2019-08-05 04:00:00 25.5 5 Este 22 Este 0 -- -- 65
2019-08-05 03:00:00 26.4 4 Sudeste 28 Norte 0 -- -- 55
2019-08-05 02:00:00 25.6 14 Noroeste 28 Oeste 0 -- -- 53
2019-08-05 01:00:00 24.1 11 Noroeste 16 Noroeste 0 -- -- 76
2019-08-05 00:00:00 24.9 9 Oeste 18 Noroeste 0 -- -- 73
2019-08-04 23:00:00 25.3 8 Noroeste 12 Noroeste 0 -- -- 75
2019-08-04 22:00:00 25.4 5 Oeste 21 Noroeste 0 -- -- 71
2019-08-04 21:00:00 25.8 10 Oeste 18 Oeste 0 -- -- 71
2019-08-04 20:00:00 26.6 12 Oeste 18 Noroeste 0 -- -- 72
2019-08-04 19:00:00 27.1 9 Oeste 20 Oeste 0 -- -- 72
2019-08-04 18:00:00 27.4 12 Oeste 22 Oeste 0 -- -- 72
2019-08-04 17:00:00 28.1 16 Oeste 23 Oeste 0 -- -- 69
2019-08-04 16:00:00 28.6 13 Oeste 17 Noroeste 0 -- -- 67
2019-08-04 15:00:00 28.7 6 Oeste 12 Sudoeste 0 -- -- 69
2019-08-04 14:00:00 28.5 5 Oeste 12 Oeste 0 -- -- 70
2019-08-04 13:00:00 28.4 5 Oeste 15 Noroeste 0 -- -- 71
2019-08-04 12:00:00 28.1 10 Oeste 18 Noroeste 0 -- -- 74
2019-08-04 11:00:00 27.3 10 Oeste 19 Noroeste 0 -- -- 79
2019-08-04 10:00:00 26.2 11 Oeste 21 Noroeste 0 -- -- 82
2019-08-04 09:00:00 25.3 6 Oeste 10 Oeste 0 -- -- 84
2019-08-04 08:00:00 24.4 5 Oeste 11 Noroeste 0 -- -- 84
2019-08-04 07:00:00 24.4 2 Sur 12 Sudeste 0 -- -- 83
2019-08-04 06:00:00 25 4 Este 19 Noroeste 0 -- -- 81
2019-08-04 05:00:00 25.1 13 Noroeste 33 Noroeste 0 -- -- 80
2019-08-04 04:00:00 25.2 21 Noroeste 38 Noroeste 0 -- -- 80
2019-08-04 03:00:00 25.2 19 Noroeste 28 Oeste 0 -- -- 82
2019-08-04 02:00:00 25.3 19 Noroeste 26 Noroeste 0 -- -- 82
2019-08-04 01:00:00 25.5 6 Oeste 10 Oeste 0 -- -- 83
2019-08-04 00:00:00 25.3 2 Noroeste 6 Noroeste 0 -- -- 84
2019-08-03 23:00:00 25.5 2 Oeste 12 Noroeste 0 -- -- 85
2019-08-03 22:00:00 25.8 4 Oeste 8 Oeste 0 -- -- 84
2019-08-03 21:00:00 25.8 3 Oeste 6 Oeste 0 -- -- 85
2019-08-03 20:00:00 25.9 4 Sur 8 Sudeste 0 -- -- 84
2019-08-03 19:00:00 26.1 6 Sur 22 Este 0 -- -- 82
2019-08-03 18:00:00 26.2 21 Este 32 Este 0 -- -- 83
2019-08-03 17:00:00 26.7 26 Este 37 Este 0 -- -- 81
2019-08-03 16:00:00 26.6 29 Este 39 Este 0 -- -- 81
2019-08-03 15:00:00 26.7 33 Este 40 Este 0 -- -- 79
2019-08-03 14:00:00 26.8 30 Este 39 Este 0 -- -- 79
2019-08-03 13:00:00 26.6 30 Este 48 Sudeste 0 -- -- 79
2019-08-03 12:00:00 27.8 6 Noroeste 31 Este 0 -- -- 74
2019-08-03 11:00:00 26.4 18 Este 28 Este 0 -- -- 79
2019-08-03 10:00:00 25.9 6 Sudeste 14 Sudeste 0 -- -- 83
2019-08-03 09:00:00 25.2 4 Este 9 Nordeste 0 -- -- 85
2019-08-03 08:00:00 24.4 5 Norte 11 Noroeste 0 -- -- 84
2019-08-03 07:00:00 24.7 0 Calma 18 Este 0 -- -- 84
2019-08-03 06:00:00 24.9 9 Este 21 Sudeste 0 -- -- 82
2019-08-03 05:00:00 24.4 12 Este 20 Este 0 -- -- 80
2019-08-03 04:00:00 24.4 3 Sudeste 5 Sudeste 0 -- -- 82
2019-08-03 03:00:00 24.2 2 Norte 6 Noroeste 0 -- -- 82
2019-08-03 02:00:00 24.6 4 Noroeste 18 Noroeste 0 -- -- 84
2019-08-03 01:00:00 24.7 10 Noroeste 21 Noroeste 0 -- -- 85
2019-08-03 00:00:00 25.1 10 Oeste 19 Noroeste 0 -- -- 84
2019-08-02 23:00:00 25.2 6 Sudeste 11 Este 0 -- -- 84
2019-08-02 22:00:00 25.3 9 Este 15 Este 0 -- -- 82
2019-08-02 21:00:00 25.9 6 Este 18 Este 0 -- -- 80
2019-08-02 20:00:00 26.5 6 Sudeste 20 Este 0 -- -- 78
2019-08-02 19:00:00 26.3 18 Este 26 Sudeste 0 -- -- 76
2019-08-02 18:00:00 26.8 7 Sudeste 10 Este 0 -- -- 72
2019-08-02 17:00:00 27.8 4 Sur 10 Sudoeste 0 -- -- 69
2019-08-02 16:00:00 29.4 6 Oeste 18 Oeste 0 -- -- 65
2019-08-02 15:00:00 28.7 7 Oeste 12 Noroeste 0 -- -- 67
2019-08-02 14:00:00 27.6 4 Sudeste 9 Sudeste 0 -- -- 69
2019-08-02 13:00:00 27.7 5 Sur 9 Sudeste 0 -- -- 70
2019-08-02 12:00:00 27.6 6 Oeste 15 Oeste 0 -- -- 72
2019-08-02 11:00:00 26.7 8 Oeste 17 Noroeste 0 -- -- 76
2019-08-02 10:00:00 26 10 Oeste 16 Noroeste 0 -- -- 80
2019-08-02 09:00:00 24.7 9 Oeste 25 Noroeste 0 -- -- 83
2019-08-02 08:00:00 23.4 13 Noroeste 28 Noroeste 0 -- -- 83
2019-08-02 07:00:00 23.3 17 Noroeste 26 Noroeste 0 -- -- 82
2019-08-02 06:00:00 23.7 2 Sudeste 13 Oeste 0 -- -- 81
2019-08-02 05:00:00 23.9 11 Oeste 34 Noroeste 0 -- -- 80
2019-08-02 04:00:00 23.9 18 Noroeste 30 Oeste 0 -- -- 80
2019-08-02 03:00:00 24.2 2 Oeste 7 Sudeste 0 -- -- 80
2019-08-02 02:00:00 24.8 2 Sur 18 Noroeste 0 -- -- 79
2019-08-02 01:00:00 24.9 8 Noroeste 41 Noroeste 0 -- -- 77
2019-08-02 00:00:00 25.3 12 Noroeste 20 Noroeste 0 -- -- 74
2019-08-01 23:00:00 25.1 6 Oeste 19 Oeste 0 -- -- 73
2019-08-01 22:00:00 25.3 7 Oeste 14 Noroeste 0 -- -- 72
2019-08-01 21:00:00 26.1 6 Oeste 11 Oeste 0 -- -- 71
2019-08-01 20:00:00 26.2 4 Oeste 8 Sudoeste 0 -- -- 73
2019-08-01 19:00:00 26 4 Sudoeste 8 Sudoeste 0 -- -- 72
2019-08-01 18:00:00 26.5 3 Sudeste 8 Sudeste 0 -- -- 70
2019-08-01 17:00:00 27.8 6 Sudeste 13 Sudeste 0 -- -- 65
2019-08-01 16:00:00 28.6 6 Sudeste 16 Sudeste 0 -- -- 63
2019-08-01 15:00:00 27.9 8 Sudeste 29 Este 0 -- -- 64
2019-08-01 14:00:00 27.4 21 Este 33 Este 0 -- -- 60
2019-08-01 13:00:00 28.2 22 Este 32 Este 0 -- -- 59
2019-08-01 12:00:00 26.9 10 Sudeste 72 Este 0 -- -- 62
2019-08-01 11:00:00 26.8 44 Este 69 Este 0 -- -- 62
2019-08-01 10:00:00 27.2 11 Oeste 19 Noroeste 0 -- -- 58
2019-08-01 09:00:00 26.1 7 Norte 26 Este 0 -- -- 60
2019-08-01 08:00:00 25.7 6 Norte 30 Nordeste 0 -- -- 61
2019-08-01 07:00:00 25.3 7 Norte 21 Norte 0 -- -- 62
2019-08-01 06:00:00 24.6 7 Norte 23 Noroeste 0 -- -- 65
2019-08-01 05:00:00 25.4 14 Norte 30 Noroeste 0 -- -- 64
2019-08-01 04:00:00 25.5 6 Norte 24 Nordeste 0 -- -- 64
2019-08-01 03:00:00 25.6 17 Nordeste 41 Nordeste 0 -- -- 67
2019-08-01 02:00:00 25.7 22 Nordeste 60 Nordeste 0 -- -- 68
2019-08-01 01:00:00 26.1 31 Nordeste 57 Este 0 -- -- 65
2019-08-01 00:00:00 26.3 34 Nordeste 70 Nordeste 0 -- -- 64
2019-07-31 23:00:00 26.5 23 Nordeste 57 Nordeste 0 -- -- 64
2019-07-31 22:00:00 26.6 36 Nordeste 64 Nordeste 0 -- -- 62
2019-07-31 21:00:00 26.2 36 Nordeste 68 Nordeste 0 -- -- 66
2019-07-31 20:00:00 27.1 36 Nordeste 78 Nordeste 0 -- -- 62
2019-07-31 19:00:00 27.3 45 Nordeste 77 Nordeste 0 -- -- 64
2019-07-31 18:00:00 27.6 36 Este 72 Nordeste 0 -- -- 64
2019-07-31 17:00:00 27.8 50 Este 89 Nordeste 0 -- -- 64
2019-07-31 16:00:00 28.7 44 Nordeste 80 Este 0 -- -- 60
2019-07-31 15:00:00 29.3 26 Nordeste 77 Nordeste 0 -- -- 59
2019-07-31 14:00:00 27.9 35 Nordeste 79 Nordeste 0 -- -- 65
2019-07-31 13:00:00 28.7 27 Nordeste 76 Este 0 -- -- 57
2019-07-31 12:00:00 27.7 26 Nordeste 62 Este 0 -- -- 60
2019-07-31 11:00:00 27.2 32 Nordeste 72 Nordeste 0 -- -- 60
2019-07-31 10:00:00 27.3 44 Nordeste 82 Este 0 -- -- 62
2019-07-31 09:00:00 26.1 17 Noroeste 59 Este 0 -- -- 69
2019-07-31 08:00:00 25.9 8 Nordeste 51 Nordeste 0 -- -- 69
2019-07-31 07:00:00 25.8 29 Nordeste 69 Nordeste 0 -- -- 69
2019-07-31 06:00:00 25.8 29 Norte 88 Nordeste 0 -- -- 65
2019-07-31 05:00:00 26.9 36 Nordeste 63 Este 0 -- -- 51
2019-07-31 04:00:00 25.6 15 Nordeste 41 Nordeste 0 -- -- 62
2019-07-31 03:00:00 24.7 5 Noroeste 19 Nordeste 0 -- -- 74
2019-07-31 02:00:00 24.9 8 Nordeste 26 Nordeste 0 -- -- 78
2019-07-31 01:00:00 25.1 15 Nordeste 35 Este 0 -- -- 79
2019-07-31 00:00:00 25.3 17 Nordeste 36 Este 0 -- -- 78
2019-07-30 23:00:00 25.4 19 Nordeste 36 Nordeste 0 -- -- 75
2019-07-30 22:00:00 25.5 15 Nordeste 49 Nordeste 0 -- -- 73
2019-07-30 21:00:00 25.2 28 Este 47 Nordeste 0 -- -- 73
2019-07-30 20:00:00 26.5 22 Este 40 Este 0 -- -- 65
2019-07-30 19:00:00 25.6 15 Este 46 Este 0 -- -- 74
2019-07-30 18:00:00 23.9 38 Este 49 Este 0 -- -- 85
2019-07-30 17:00:00 24.3 36 Este 49 Este 0 -- -- 84
2019-07-30 16:00:00 25.1 29 Este 35 Este 0 -- -- 79
2019-07-30 15:00:00 25.9 25 Este 30 Este 0 -- -- 75
2019-07-30 14:00:00 26.2 21 Este 28 Este 0 -- -- 74
2019-07-30 13:00:00 25.9 21 Este 35 Este 0 -- -- 74
2019-07-30 12:00:00 26 18 Este 27 Este 0 -- -- 71
2019-07-30 11:00:00 26.2 12 Este 16 Sudeste 0 -- -- 68
2019-07-30 10:00:00 26.1 6 Sudeste 8 Este 0 -- -- 70
2019-07-30 09:00:00 24.6 6 Este 8 Este 0 -- -- 76
2019-07-30 08:00:00 22.6 2 Nordeste 8 Noroeste 0 -- -- 79
2019-07-30 07:00:00 22.1 3 Nordeste 16 Norte 0 -- -- 82
2019-07-30 06:00:00 22.1 7 Noroeste 24 Noroeste 0 -- -- 82
2019-07-30 05:00:00 22.1 17 Noroeste 31 Noroeste 0 -- -- 83
2019-07-30 04:00:00 22.4 19 Oeste 30 Noroeste 0 -- -- 83
2019-07-30 03:00:00 22.3 7 Oeste 12 Oeste 0 -- -- 83
2019-07-30 02:00:00 22.6 2 Oeste 15 Noroeste 0 -- -- 81
2019-07-30 01:00:00 22.8 13 Oeste 27 Noroeste 0 -- -- 80
2019-07-30 00:00:00 23 12 Noroeste 24 Noroeste 0 -- -- 78
2019-07-29 23:00:00 23.3 12 Noroeste 21 Oeste 0 -- -- 75
2019-07-29 22:00:00 23.4 12 Oeste 22 Noroeste 0 -- -- 72
2019-07-29 21:00:00 23.8 12 Oeste 21 Oeste 0 -- -- 73
2019-07-29 20:00:00 24.3 11 Oeste 18 Oeste 0 -- -- 71
2019-07-29 19:00:00 24.7 10 Oeste 16 Noroeste 0 -- -- 70
2019-07-29 18:00:00 25.3 11 Oeste 17 Noroeste 0 -- -- 67
2019-07-29 17:00:00 26.4 10 Oeste 19 Oeste 0 -- -- 66
2019-07-29 16:00:00 26.7 11 Oeste 19 Noroeste 0 -- -- 68
2019-07-29 15:00:00 26.5 11 Oeste 18 Noroeste 0 -- -- 70
2019-07-29 14:00:00 26.3 12 Oeste 17 Oeste 0 -- -- 71
2019-07-29 13:00:00 25.8 6 Oeste 13 Oeste 0 -- -- 73
2019-07-29 12:00:00 25.4 4 Sudoeste 8 Sudoeste 0 -- -- 74
2019-07-29 11:00:00 24.8 4 Sudoeste 11 Oeste 0 -- -- 80
2019-07-29 10:00:00 24 3 Norte 20 Este 0 -- -- 82
2019-07-29 09:00:00 23 15 Este 20 Este 0 -- -- 85
2019-07-29 08:00:00 21.4 0 Calma 13 Noroeste 0 -- -- 86
2019-07-29 07:00:00 21.1 9 Oeste 16 Noroeste 0 -- -- 85
2019-07-29 06:00:00 21.4 7 Oeste 15 Oeste 0 -- -- 85
2019-07-29 05:00:00 21.5 11 Oeste 16 Oeste 0 -- -- 84
2019-07-29 04:00:00 21.6 6 Oeste 10 Noroeste 0 -- -- 84
2019-07-29 03:00:00 21.9 3 Sur 10 Noroeste 0 -- -- 83
2019-07-29 02:00:00 22.3 6 Oeste 9 Oeste 0 -- -- 82
2019-07-29 01:00:00 22.2 2 Oeste 4 Sudoeste 0 -- -- 81
2019-07-29 00:00:00 22.5 2 Sudoeste 9 Noroeste 0 -- -- 80
2019-07-28 23:00:00 22.8 5 Oeste 9 Oeste 0 -- -- 80
2019-07-28 22:00:00 22.9 2 Sur 6 Sur 0 -- -- 79
2019-07-28 21:00:00 23.3 3 Sudoeste 9 Sudoeste 0 -- -- 78
2019-07-28 20:00:00 23.7 5 Oeste 9 Sudoeste 0 -- -- 77
2019-07-28 19:00:00 23.5 4 Sudoeste 8 Oeste 0 -- -- 77
2019-07-28 18:00:00 23.6 5 Sur 10 Sur 0 -- -- 74
2019-07-28 17:00:00 25.4 5 Sudeste 9 Este 0 -- -- 71
2019-07-28 16:00:00 25.8 5 Sudeste 12 Este 0 -- -- 70
2019-07-28 15:00:00 27 6 Sudeste 14 Este 0 -- -- 68
2019-07-28 14:00:00 27 6 Sudeste 16 Nordeste 0 -- -- 67
2019-07-28 13:00:00 26 5 Sudeste 13 Este 0 -- -- 71
2019-07-28 12:00:00 25.1 8 Sudeste 16 Este 0 -- -- 73
2019-07-28 11:00:00 24.9 5 Sudeste 12 Este 0 -- -- 77
2019-07-28 10:00:00 23.5 5 Sudeste 15 Sudeste 0 -- -- 81
2019-07-28 09:00:00 22.9 10 Este 15 Este 0 -- -- 84
2019-07-28 08:00:00 21.6 8 Este 11 Este 0 -- -- 85
2019-07-28 07:00:00 21.3 5 Sudeste 8 Sudeste 0 -- -- 84
2019-07-28 06:00:00 21.6 3 Sur 12 Sudoeste 0 -- -- 83
2019-07-28 05:00:00 21.9 4 Sur 18 Oeste 0 -- -- 83
2019-07-28 04:00:00 22.2 9 Oeste 22 Oeste 0 -- -- 81
2019-07-28 03:00:00 22.7 12 Oeste 28 Noroeste 0 -- -- 80
2019-07-28 02:00:00 22.9 11 Oeste 30 Noroeste 0 -- -- 79
2019-07-28 01:00:00 23 22 Oeste 44 Noroeste 0 -- -- 78
2019-07-28 00:00:00 23.1 28 Oeste 50 Noroeste 0 -- -- 77
2019-07-27 23:00:00 23.2 18 Noroeste 55 Noroeste 0 -- -- 77
2019-07-26 12:00:00 -- -- -- -- -- -- -- -- --
2019-07-26 11:00:00 -- -- -- -- -- -- -- -- --
2019-07-26 10:00:00 -- -- -- -- -- -- -- -- --
2019-07-26 09:00:00 -- -- -- -- -- -- -- -- --
2019-07-26 08:00:00 23.9 13 Oeste 31 Oeste 0 -- -- 85
2019-07-26 07:00:00 24 22 Oeste 30 Oeste 0 -- -- 85
2019-07-26 06:00:00 24.4 17 Oeste 31 Noroeste 0 -- -- 85
2019-07-26 05:00:00 24.5 20 Oeste 28 Oeste 0 -- -- 83
2019-07-26 04:00:00 25.1 10 Oeste 18 Oeste 0 -- -- 80
2019-07-26 03:00:00 25.1 9 Oeste 23 Noroeste 0 -- -- 74
2019-07-26 02:00:00 24.9 16 Oeste 30 Noroeste 0 -- -- 79
2019-07-26 01:00:00 25.3 10 Oeste 25 Noroeste 0 -- -- 80
2019-07-26 00:00:00 25.6 16 Noroeste 26 Noroeste 0 -- -- 78
2019-07-25 23:00:00 25.8 15 Oeste 24 Oeste 0 -- -- 75
2019-07-25 22:00:00 26.3 9 Oeste 20 Noroeste 0 -- -- 73
2019-07-25 21:00:00 27.1 9 Oeste 15 Noroeste 0 -- -- 73
2019-07-25 20:00:00 28 5 Oeste 12 Sudoeste 0 -- -- 73
2019-07-25 19:00:00 28 6 Oeste 12 Noroeste 0 -- -- 72
2019-07-25 18:00:00 28.5 4 Oeste 12 Oeste 0 -- -- 71
2019-07-25 17:00:00 28.7 5 Oeste 16 Sur 0 -- -- 69
2019-07-25 16:00:00 28.2 7 Sur 17 Sudeste 0 -- -- 68
2019-07-25 15:00:00 28.6 8 Sur 15 Sur 0 -- -- 62
2019-07-25 14:00:00 29 6 Sur 12 Sur 0 -- -- 67
2019-07-25 13:00:00 29.3 4 Oeste 13 Oeste 0 -- -- 67
2019-07-25 12:00:00 29.3 5 Oeste 18 Oeste 0 -- -- 67
2019-07-25 11:00:00 28.4 9 Oeste 20 Noroeste 0 -- -- 70
2019-07-25 10:00:00 27.6 11 Oeste 18 Noroeste 0 -- -- 73
2019-07-25 09:00:00 27.4 4 Oeste 9 Oeste 0 -- -- 72
2019-07-25 08:00:00 25.6 6 Noroeste 20 Oeste 0 -- -- 69
2019-07-25 07:00:00 25.4 15 Oeste 28 Noroeste 0 -- -- 68
2019-07-25 06:00:00 25.9 14 Oeste 23 Oeste 0 -- -- 69
2019-07-25 05:00:00 28.9 4 Noroeste 24 Norte 0 -- -- 47
2019-07-25 04:00:00 25.2 0 Calma 8 Oeste 0 -- -- 75
2019-07-25 03:00:00 25 4 Nordeste 11 Oeste 0 -- -- 75
2019-07-25 02:00:00 26.3 5 Oeste 9 Sudoeste 0 -- -- 73
2019-07-25 01:00:00 28 6 Oeste 13 Nordeste 0 -- -- 64
2019-07-25 00:00:00 29.1 20 Nordeste 36 Nordeste 0 -- -- 46
2019-07-24 23:00:00 29.7 17 Nordeste 42 Nordeste 0 -- -- 44
2019-07-24 22:00:00 30.2 27 Nordeste 51 Nordeste 0 -- -- 42
2019-07-24 21:00:00 30.6 33 Nordeste 58 Nordeste 0 -- -- 41
2019-07-24 20:00:00 30.8 39 Nordeste 58 Nordeste 0 -- -- 41
2019-07-24 19:00:00 31.5 31 Nordeste 57 Nordeste 0 -- -- 41
2019-07-24 18:00:00 30.6 33 Nordeste 60 Nordeste 0 -- -- 50
2019-07-24 17:00:00 29.5 21 Este 41 Este 0 -- -- 61
2019-07-24 16:00:00 29.9 26 Este 55 Este 0 -- -- 57
2019-07-24 15:00:00 30.3 30 Este 49 Este 0 -- -- 54
2019-07-24 14:00:00 30.9 30 Este 54 Este 0 -- -- 46
2019-07-24 13:00:00 29.9 35 Este 55 Este 0 -- -- 50
2019-07-24 12:00:00 30 5 Sur 21 Este 0 -- -- 55
2019-07-24 11:00:00 29.7 8 Oeste 20 Noroeste 0 -- -- 57
2019-07-24 10:00:00 28.4 15 Oeste 40 Noroeste 0 -- -- 58
2019-07-24 09:00:00 27.8 23 Noroeste 35 Noroeste 0 -- -- 54
2019-07-24 08:00:00 29.3 6 Sudeste 18 Nordeste 0 -- -- 55
2019-07-24 07:00:00 30.3 9 Norte 24 Nordeste 0 -- -- 30
2019-07-24 06:00:00 30.2 12 Norte 37 Nordeste 0 -- -- 32
2019-07-24 05:00:00 29.7 10 Nordeste 31 Norte 0 -- -- 36
2019-07-24 04:00:00 29.1 9 Nordeste 19 Nordeste 0 -- -- 38
2019-07-24 03:00:00 27.4 5 Nordeste 13 Nordeste 0 -- -- 52
2019-07-24 02:00:00 26.7 3 Sudeste 12 Nordeste 0 -- -- 60
2019-07-24 01:00:00 25.4 4 Nordeste 17 Oeste 0 -- -- 69
2019-07-24 00:00:00 25.9 5 Oeste 12 Oeste 0 -- -- 72
2019-07-23 23:00:00 25.9 4 Noroeste 18 Oeste 0 -- -- 70
2019-07-23 22:00:00 27.2 10 Oeste 33 Norte 0 -- -- 64
2019-07-23 21:00:00 30.2 17 Norte 42 Nordeste 0 -- -- 41
2019-07-23 20:00:00 30.5 24 Nordeste 64 Este 0 -- -- 42
2019-07-23 19:00:00 30.9 25 Nordeste 63 Nordeste 0 -- -- 45
2019-07-23 18:00:00 30.9 44 Nordeste 67 Nordeste 0 -- -- 46
2019-07-23 17:00:00 32.2 29 Nordeste 71 Nordeste 0 -- -- 41
2019-07-23 16:00:00 32.1 42 Nordeste 73 Este 0 -- -- 41
2019-07-23 15:00:00 32.3 53 Nordeste 82 Este 0 -- -- 38
2019-07-23 14:00:00 32.6 41 Nordeste 59 Nordeste 0 -- -- 35
2019-07-23 13:00:00 32.4 34 Nordeste 60 Nordeste 0 -- -- 33
2019-07-23 12:00:00 31.9 31 Este 51 Este 0 -- -- 32
2019-07-23 11:00:00 32.5 18 Este 47 Nordeste 0 -- -- 33
2019-07-23 10:00:00 32 24 Este 35 Este 0 -- -- 31
2019-07-23 09:00:00 30.6 9 Noroeste 68 Nordeste 0 -- -- 33
2019-07-23 08:00:00 30.1 36 Nordeste 70 Nordeste 0 -- -- 33
2019-07-23 07:00:00 29.8 31 Nordeste 57 Nordeste 0 -- -- 33
2019-07-23 06:00:00 30.2 27 Nordeste 58 Nordeste 0 -- -- 32
2019-07-23 05:00:00 29.8 26 Nordeste 58 Nordeste 0 -- -- 36
2019-07-23 04:00:00 29.8 29 Nordeste 65 Nordeste 0 -- -- 39
2019-07-23 03:00:00 29.6 14 Nordeste 32 Este 0 -- -- 43
2019-07-23 02:00:00 30.1 24 Norte 38 Norte 0 -- -- 41
2019-07-23 01:00:00 29.8 14 Nordeste 41 Nordeste 0 -- -- 44
2019-07-23 00:00:00 29.8 19 Norte 53 Nordeste 0 -- -- 46
2019-07-22 23:00:00 29.1 27 Nordeste 58 Este 0 -- -- 52
2019-07-22 22:00:00 28.3 33 Nordeste 84 Este 0 -- -- 58
2019-07-22 21:00:00 27.7 49 Nordeste 85 Nordeste 0 -- -- 64
2019-07-22 20:00:00 27.4 57 Nordeste 87 Nordeste 0 -- -- 69
2019-07-22 19:00:00 27.8 58 Nordeste 90 Este 0 -- -- 67
2019-07-22 18:00:00 28.1 63 Nordeste 90 Nordeste 0 -- -- 66
2019-07-22 17:00:00 28.3 63 Nordeste 97 Nordeste 0 -- -- 65
2019-07-22 16:00:00 29 51 Nordeste 82 Nordeste 0 -- -- 63
2019-07-22 15:00:00 28.8 53 Este 80 Este 0 -- -- 63
2019-07-22 14:00:00 29 51 Este 74 Este 0 -- -- 60
2019-07-22 13:00:00 29.6 34 Nordeste 67 Este 0 -- -- 58
2019-07-22 12:00:00 29.5 29 Nordeste 59 Este 0 -- -- 56
2019-07-22 11:00:00 29 29 Este 62 Este 0 -- -- 57
2019-07-22 10:00:00 28.7 24 Nordeste 47 Nordeste 0 -- -- 53
2019-07-22 09:00:00 27.3 17 Nordeste 33 Norte 0 -- -- 60
2019-07-22 08:00:00 25.1 8 Oeste 24 Este 0 -- -- 78
2019-07-22 07:00:00 24.8 12 Oeste 24 Noroeste 0 -- -- 76
2019-07-22 06:00:00 25.1 4 Norte 13 Noroeste 0 -- -- 73
2019-07-22 05:00:00 26.6 4 Sur 19 Norte 0 -- -- 63
2019-07-22 04:00:00 26.5 7 Norte 31 Nordeste 0 -- -- 68
2019-07-22 03:00:00 26.4 18 Este 40 Nordeste 0 -- -- 72
2019-07-22 02:00:00 26.6 19 Nordeste 29 Este 0 -- -- 73
2019-07-22 01:00:00 27.1 11 Este 18 Nordeste 0 -- -- 70
2019-07-22 00:00:00 27.5 12 Norte 59 Nordeste 0 -- -- 68
2019-07-21 23:00:00 27.1 35 Nordeste 58 Nordeste 0 -- -- 70
2019-07-21 22:00:00 26.6 27 Nordeste 57 Nordeste 0 -- -- 74
2019-07-21 21:00:00 26.8 27 Este 71 Nordeste 0 -- -- 73
2019-07-21 20:00:00 27.7 23 Este 65 Nordeste 0 -- -- 70
2019-07-21 19:00:00 28.5 29 Nordeste 51 Nordeste 0 -- -- 67
2019-07-21 18:00:00 28.8 25 Nordeste 61 Este 0 -- -- 66
2019-07-21 17:00:00 28.9 35 Este 59 Este 0 -- -- 66
2019-07-21 16:00:00 29.4 35 Este 58 Este 0 -- -- 64
2019-07-21 15:00:00 30 23 Este 51 Nordeste 0 -- -- 62
2019-07-21 14:00:00 29.8 26 Este 50 Nordeste 0 -- -- 62
2019-07-21 13:00:00 29.6 22 Este 46 Nordeste 0 -- -- 60
2019-07-21 12:00:00 29.7 24 Este 53 Nordeste 0 -- -- 57
2019-07-21 11:00:00 29 26 Este 49 Este 0 -- -- 55
2019-07-21 10:00:00 27.8 24 Este 36 Este 0 -- -- 62
2019-07-21 09:00:00 26.4 4 Sudoeste 14 Norte 0 -- -- 68
2019-07-21 08:00:00 24.7 8 Norte 21 Noroeste 0 -- -- 69
2019-07-21 07:00:00 24.9 20 Noroeste 29 Noroeste 0 -- -- 71
2019-07-21 06:00:00 24.8 11 Noroeste 20 Noroeste 0 -- -- 73
2019-07-21 05:00:00 24.9 15 Noroeste 29 Noroeste 0 -- -- 74
2019-07-21 04:00:00 24.7 18 Noroeste 36 Noroeste 0 -- -- 74
2019-07-21 03:00:00 24.7 18 Noroeste 28 Noroeste 0 -- -- 75
2019-07-21 02:00:00 24.9 4 Oeste 9 Oeste 0 -- -- 74
2019-07-21 01:00:00 25 3 Oeste 11 Oeste 0 -- -- 74
2019-07-21 00:00:00 25.2 5 Oeste 9 Oeste 0 -- -- 74